createdAt,value
2023-04-21T00:01:16.403Z,7.10
2023-04-21T00:03:43.993Z,7.70
2023-04-21T00:06:10.716Z,7.63
2023-04-21T00:08:40.679Z,6.40
2023-04-21T00:11:07.464Z,7.87
2023-04-21T00:13:34.707Z,6.33
2023-04-21T00:16:01.749Z,7.20
2023-04-21T00:18:28.429Z,7.40
2023-04-21T00:20:55.512Z,7.10
2023-04-21T00:23:22.126Z,6.73
2023-04-21T00:25:48.779Z,7.17
2023-04-21T00:28:15.221Z,6.53
2023-04-21T00:30:41.703Z,7.33
2023-04-21T00:33:08.156Z,7.30
2023-04-21T00:35:34.863Z,7.30
2023-04-21T00:38:01.324Z,6.60
2023-04-21T00:40:28.132Z,7.40
2023-04-21T00:42:54.586Z,7.20
2023-04-21T00:45:21.300Z,6.40
2023-04-21T00:47:47.843Z,6.47
2023-04-21T00:50:14.512Z,7.27
2023-04-21T00:52:42.044Z,6.40
2023-04-21T00:55:08.892Z,6.77
2023-04-21T00:57:38.429Z,6.57
2023-04-21T01:00:09.224Z,6.57
2023-04-21T01:02:37.478Z,6.60
2023-04-21T01:05:05.500Z,6.50
2023-04-21T01:07:32.057Z,7.57
2023-04-21T01:10:00.008Z,6.87
2023-04-21T01:12:27.118Z,7.00
2023-04-21T01:14:53.578Z,6.60
2023-04-21T01:17:20.833Z,6.33
2023-04-21T01:19:47.834Z,6.40
2023-04-21T01:22:15.344Z,6.30
2023-04-21T01:24:47.067Z,7.07
2023-04-21T01:27:15.260Z,7.27
2023-04-21T01:29:43.282Z,6.37
2023-04-21T01:32:11.588Z,6.90
2023-04-21T01:34:38.928Z,6.97
2023-04-21T01:37:07.743Z,6.13
2023-04-21T01:39:34.227Z,6.70
2023-04-21T01:42:00.969Z,7.17
2023-04-21T01:44:27.490Z,7.20
2023-04-21T01:46:53.987Z,6.40
2023-04-21T01:49:20.702Z,7.03
2023-04-21T01:51:48.360Z,6.50
2023-04-21T01:54:14.906Z,6.60
2023-04-21T01:56:41.374Z,6.33
2023-04-21T01:59:08.041Z,6.37
2023-04-21T02:01:36.150Z,7.27
2023-04-21T02:04:04.320Z,7.40
2023-04-21T02:06:33.649Z,6.60
2023-04-21T02:09:00.181Z,6.00
2023-04-21T02:11:30.384Z,6.00
2023-04-21T02:13:57.348Z,7.37
2023-04-21T02:16:27.140Z,6.30
2023-04-21T02:18:54.514Z,6.40
2023-04-21T02:21:24.055Z,6.77
2023-04-21T02:23:51.565Z,5.90
2023-04-21T02:26:18.709Z,7.10
2023-04-21T02:28:45.358Z,6.60
2023-04-21T02:31:12.332Z,7.30
2023-04-21T02:33:38.982Z,7.27
2023-04-21T02:36:06.186Z,6.83
2023-04-21T02:38:32.707Z,7.07
2023-04-21T02:40:59.182Z,6.17
2023-04-21T02:43:25.653Z,6.37
2023-04-21T02:45:52.126Z,6.20
2023-04-21T02:48:22.807Z,7.67
2023-04-21T02:50:53.210Z,6.70
2023-04-21T02:53:20.261Z,5.97
2023-04-21T02:55:47.161Z,6.50
2023-04-21T02:58:14.129Z,6.50
2023-04-21T03:00:41.649Z,6.93
2023-04-21T03:03:08.773Z,6.63
2023-04-21T03:05:35.521Z,7.30
2023-04-21T03:08:03.004Z,7.20
2023-04-21T03:10:29.794Z,7.03
2023-04-21T03:12:56.374Z,6.30
2023-04-21T03:15:23.890Z,7.07
2023-04-21T03:17:50.929Z,6.40
2023-04-21T03:20:17.933Z,6.90
2023-04-21T03:22:44.478Z,7.00
2023-04-21T03:25:11.940Z,6.83
2023-04-21T03:27:38.765Z,8.53
2023-04-21T03:30:06.981Z,7.80
2023-04-21T03:32:33.622Z,6.60
2023-04-21T03:35:00.183Z,7.30
2023-04-21T03:37:26.664Z,7.33
2023-04-21T03:39:53.214Z,6.60
2023-04-21T03:42:20.184Z,7.07
2023-04-21T03:44:46.653Z,6.83
2023-04-21T03:47:13.117Z,6.80
2023-04-21T03:49:39.595Z,7.07
2023-04-21T03:52:06.314Z,7.57
2023-04-21T03:54:32.817Z,6.93
2023-04-21T03:56:59.306Z,7.00
2023-04-21T03:59:25.959Z,7.57
2023-04-21T04:01:52.741Z,5.67
2023-04-21T04:04:19.596Z,6.20
2023-04-21T04:06:46.846Z,6.07
2023-04-21T04:09:13.305Z,6.67
2023-04-21T04:11:39.756Z,7.50
2023-04-21T04:14:06.231Z,7.17
2023-04-21T04:16:33.909Z,7.20
2023-04-21T04:19:00.409Z,6.87
2023-04-21T04:21:27.529Z,7.13
2023-04-21T04:23:54.032Z,7.60
2023-04-21T04:26:22.593Z,6.63
2023-04-21T04:28:49.423Z,6.43
2023-04-21T04:31:17.163Z,7.23
2023-04-21T04:33:44.192Z,7.43
2023-04-21T04:36:12.001Z,6.30
2023-04-21T04:38:38.649Z,6.73
2023-04-21T04:41:06.510Z,6.97
2023-04-21T04:43:41.885Z,7.00
2023-04-21T04:46:09.328Z,7.63
2023-04-21T04:48:36.155Z,6.87
2023-04-21T04:51:02.582Z,8.00
2023-04-21T04:53:29.109Z,8.07
2023-04-21T04:55:55.847Z,7.17
2023-04-21T04:58:22.625Z,7.47
2023-04-21T05:00:49.632Z,6.53
2023-04-21T05:03:16.275Z,7.20
2023-04-21T05:05:42.838Z,6.63
2023-04-21T05:08:09.833Z,7.13
2023-04-21T05:10:36.326Z,6.57
2023-04-21T05:13:02.964Z,7.23
2023-04-21T05:15:29.455Z,7.13
2023-04-21T05:17:56.354Z,7.37
2023-04-21T05:20:23.027Z,6.80
2023-04-21T05:22:49.491Z,6.80
2023-04-21T05:25:16.194Z,8.73
2023-04-21T05:27:43.322Z,7.47
2023-04-21T05:30:11.041Z,7.23
2023-04-21T05:32:37.574Z,6.90
2023-04-21T05:35:04.257Z,7.03
2023-04-21T05:37:31.023Z,6.07
2023-04-21T05:39:57.508Z,7.63
2023-04-21T05:42:24.188Z,7.33
2023-04-21T05:44:50.984Z,6.90
2023-04-21T05:47:17.448Z,6.60
2023-04-21T05:49:49.978Z,7.93
2023-04-21T05:52:17.637Z,7.10
2023-04-21T05:54:44.179Z,6.20
2023-04-21T05:57:11.132Z,8.07
2023-04-21T05:59:37.632Z,6.87
2023-04-21T06:02:04.298Z,6.70
2023-04-21T06:04:31.090Z,6.80
2023-04-21T06:06:58.125Z,7.23
2023-04-21T06:09:24.625Z,7.57
2023-04-21T06:11:51.076Z,6.90
2023-04-21T06:14:17.715Z,7.53
2023-04-21T06:16:44.585Z,6.17
2023-04-21T06:19:11.218Z,6.87
2023-04-21T06:21:37.681Z,6.60
2023-04-21T06:24:04.551Z,7.20
2023-04-21T06:26:31.104Z,7.50
2023-04-21T06:28:58.355Z,8.00
2023-04-21T06:31:24.886Z,7.00
2023-04-21T06:33:51.642Z,6.47
2023-04-21T06:36:18.292Z,7.33
2023-04-21T06:38:44.806Z,6.90
2023-04-21T06:41:11.451Z,6.70
2023-04-21T06:43:38.323Z,6.70
2023-04-21T06:46:04.878Z,7.37
2023-04-21T06:48:32.079Z,6.63
2023-04-21T06:50:58.662Z,6.93
2023-04-21T06:53:25.131Z,7.17
2023-04-21T06:55:52.956Z,7.20
2023-04-21T06:58:21.123Z,6.50
2023-04-21T07:00:48.020Z,6.33
2023-04-21T07:03:14.688Z,7.17
2023-04-21T07:05:41.257Z,6.47
2023-04-21T07:08:07.724Z,6.40
2023-04-21T07:10:34.554Z,6.27
2023-04-21T07:13:01.316Z,6.60
2023-04-21T07:15:27.780Z,6.90
2023-04-21T07:17:54.857Z,6.87
2023-04-21T07:20:21.651Z,6.40
2023-04-21T07:22:48.121Z,6.40
2023-04-21T07:25:14.678Z,6.00
2023-04-21T07:27:41.525Z,6.60
2023-04-21T07:30:08.433Z,7.50
2023-04-21T07:32:35.229Z,6.33
2023-04-21T07:35:02.684Z,6.30
2023-04-21T07:37:29.683Z,6.43
2023-04-21T07:39:57.498Z,6.50
2023-04-21T07:42:24.528Z,5.50
2023-04-21T07:44:51.518Z,5.83
2023-04-21T07:47:18.118Z,6.33
2023-04-21T07:49:45.598Z,5.97
2023-04-21T07:52:12.270Z,6.20
2023-04-21T07:54:38.729Z,6.43
2023-04-21T07:57:07.155Z,5.70
2023-04-21T07:59:33.884Z,6.10
2023-04-21T08:02:01.315Z,6.10
2023-04-21T08:04:28.479Z,6.30
2023-04-21T08:06:55.953Z,5.83
2023-04-21T08:09:22.822Z,6.50
2023-04-21T08:11:49.789Z,6.23
2023-04-21T08:14:16.394Z,5.87
2023-04-21T08:16:43.039Z,5.90
2023-04-21T08:19:10.400Z,6.03
2023-04-21T08:21:37.229Z,5.77
2023-04-21T08:24:04.403Z,6.53
2023-04-21T08:26:33.605Z,6.00
2023-04-21T08:29:03.480Z,5.70
2023-04-21T08:31:31.294Z,6.10
2023-04-21T08:34:02.040Z,6.13
2023-04-21T08:36:30.359Z,5.80
2023-04-21T08:38:57.409Z,6.00
2023-04-21T08:41:24.540Z,5.10
2023-04-21T08:43:51.528Z,5.60
2023-04-21T08:46:19.389Z,5.10
2023-04-21T08:48:46.435Z,6.33
2023-04-21T08:51:14.302Z,5.47
2023-04-21T08:53:41.394Z,5.57
2023-04-21T08:56:11.266Z,6.10
2023-04-21T08:58:38.052Z,4.77
2023-04-21T09:01:04.694Z,5.97
2023-04-21T09:03:31.403Z,5.00
2023-04-21T09:06:05.750Z,5.23
2023-04-21T09:08:34.367Z,5.33
2023-04-21T09:11:03.747Z,4.90
2023-04-21T09:13:31.388Z,4.90
2023-04-21T09:15:57.961Z,5.47
2023-04-21T09:18:25.867Z,5.33
2023-04-21T09:21:05.945Z,5.23
2023-04-21T09:23:39.021Z,5.13
2023-04-21T09:26:05.597Z,4.93
2023-04-21T09:28:32.925Z,4.73
2023-04-21T09:30:59.441Z,4.90
2023-04-21T09:33:30.988Z,4.40
2023-04-21T09:36:04.997Z,4.10
2023-04-21T09:38:32.807Z,4.57
2023-04-21T09:40:59.442Z,3.67
2023-04-21T09:43:26.273Z,5.40
2023-04-21T09:45:53.567Z,4.90
2023-04-21T09:48:22.499Z,4.70
2023-04-21T09:53:21.778Z,4.50
2023-04-21T09:55:49.251Z,4.27
2023-04-21T09:58:19.331Z,4.50
2023-04-21T10:00:46.256Z,4.67
2023-04-21T10:03:13.873Z,4.50
2023-04-21T10:05:42.782Z,4.67
2023-04-21T10:08:12.312Z,4.50
2023-04-21T10:10:39.548Z,4.10
2023-04-21T10:13:07.050Z,3.80
2023-04-21T10:15:35.865Z,4.20
2023-04-21T10:18:11.759Z,4.60
2023-04-21T10:20:57.795Z,4.27
2023-04-21T10:23:28.767Z,4.27
2023-04-21T10:26:01.063Z,4.17
2023-04-21T10:28:54.453Z,3.23
2023-04-21T10:31:22.270Z,4.13
2023-04-21T10:34:13.042Z,3.60
2023-04-21T10:36:43.820Z,4.33
2023-04-21T10:39:15.943Z,4.20
2023-04-21T10:41:43.450Z,3.80
2023-04-21T10:44:09.855Z,4.23
2023-04-21T10:46:37.537Z,4.30
2023-04-21T10:49:08.246Z,6.90
2023-04-21T10:51:53.611Z,4.03
2023-04-21T10:54:21.982Z,4.93
2023-04-21T10:56:52.571Z,4.57
2023-04-21T10:59:20.211Z,3.93
2023-04-21T11:01:47.316Z,4.07
2023-04-21T11:04:14.531Z,3.90
2023-04-21T11:06:41.741Z,3.90
2023-04-21T11:09:09.214Z,3.97
2023-04-21T11:11:36.530Z,3.73
2023-04-21T11:14:03.464Z,4.10
2023-04-21T11:16:30.857Z,4.00
2023-04-21T11:18:57.370Z,3.97
2023-04-21T11:21:24.687Z,3.87
2023-04-21T11:23:55.294Z,3.93
2023-04-21T11:26:31.834Z,3.90
2023-04-21T11:29:02.137Z,3.67
2023-04-21T11:31:29.758Z,4.20
2023-04-21T11:33:56.523Z,4.30
2023-04-21T11:36:34.345Z,3.90
2023-04-21T11:39:04.988Z,3.90
2023-04-21T11:41:31.464Z,3.70
2023-04-21T11:43:57.867Z,3.93
2023-04-21T11:46:24.452Z,4.67
2023-04-21T11:49:07.051Z,4.17
2023-04-21T11:51:37.616Z,4.03
2023-04-21T11:54:24.198Z,3.80
2023-04-21T11:56:51.245Z,4.40
2023-04-21T11:59:19.661Z,4.10
2023-04-21T12:01:47.329Z,3.90
2023-04-21T12:04:18.320Z,3.27
2023-04-21T12:06:46.152Z,4.00
2023-04-21T12:09:19.673Z,3.83
2023-04-21T12:11:53.502Z,3.67
2023-04-21T12:14:20.827Z,3.80
2023-04-21T12:16:51.979Z,3.70
2023-04-21T12:19:26.493Z,3.70
2023-04-21T12:21:58.776Z,3.53
2023-04-21T12:24:25.260Z,3.60
2023-04-21T12:26:51.868Z,2.80
2023-04-21T12:29:18.353Z,3.80
2023-04-21T12:31:44.895Z,4.43
2023-04-21T12:34:11.506Z,4.17
2023-04-21T12:36:38.730Z,4.10
2023-04-21T12:39:06.600Z,4.07
2023-04-21T12:41:34.594Z,3.97
2023-04-21T12:44:01.878Z,4.47
2023-04-21T12:46:28.529Z,4.27
2023-04-21T12:48:56.116Z,4.60
2023-04-21T12:51:22.596Z,4.23
2023-04-21T12:53:49.486Z,3.80
2023-04-21T12:56:16.160Z,4.60
2023-04-21T12:58:42.739Z,4.90
2023-04-21T13:01:09.525Z,4.83
2023-04-21T13:03:36.240Z,5.57
2023-04-21T13:06:03.522Z,4.80
2023-04-21T13:08:30.164Z,4.87
2023-04-21T13:10:56.674Z,4.77
2023-04-21T13:13:23.295Z,4.80
2023-04-21T13:15:50.175Z,4.90
2023-04-21T13:18:16.898Z,4.90
2023-04-21T13:20:43.639Z,5.27
2023-04-21T13:23:11.396Z,4.73
2023-04-21T13:25:38.312Z,4.53
2023-04-21T13:28:05.209Z,4.60
2023-04-21T13:30:31.764Z,5.00
2023-04-21T13:32:58.263Z,5.43
2023-04-21T13:35:25.010Z,5.23
2023-04-21T13:37:51.569Z,5.43
2023-04-21T13:40:18.106Z,5.40
2023-04-21T13:42:44.602Z,4.93
2023-04-21T13:45:11.800Z,5.20
2023-04-21T13:47:38.431Z,4.73
2023-04-21T13:50:05.378Z,5.37
2023-04-21T13:52:32.042Z,5.47
2023-04-21T13:54:58.526Z,5.20
2023-04-21T13:57:25.518Z,5.33
2023-04-21T13:59:52.153Z,4.97
2023-04-21T14:02:19.006Z,5.50
2023-04-21T14:04:46.184Z,5.30
2023-04-21T14:07:15.751Z,5.03
2023-04-21T14:09:42.345Z,4.50
2023-04-21T14:12:10.206Z,5.10
2023-04-21T14:14:38.617Z,5.23
2023-04-21T14:17:06.768Z,4.60
2023-04-21T14:19:34.000Z,4.47
2023-04-21T14:22:00.715Z,5.00
2023-04-21T14:24:29.376Z,5.27
2023-04-21T14:26:56.256Z,5.07
2023-04-21T14:29:23.145Z,4.70
2023-04-21T14:31:50.389Z,4.40
2023-04-21T14:34:17.045Z,4.80
2023-04-21T14:36:43.543Z,5.10
2023-04-21T14:39:10.430Z,4.73
2023-04-21T14:41:36.955Z,4.17
2023-04-21T14:44:03.908Z,4.53
2023-04-21T14:46:30.544Z,4.77
2023-04-21T14:48:57.539Z,4.57
2023-04-21T14:51:24.426Z,4.03
2023-04-21T14:53:52.145Z,4.70
2023-04-21T14:56:19.406Z,4.37
2023-04-21T14:58:45.995Z,4.20
2023-04-21T15:01:12.704Z,4.23
2023-04-21T15:03:39.329Z,4.03
2023-04-21T15:06:06.480Z,4.30
2023-04-21T15:08:33.255Z,4.27
2023-04-21T15:10:59.951Z,4.20
2023-04-21T15:13:26.680Z,4.40
2023-04-21T15:15:53.496Z,4.57
2023-04-21T15:18:21.003Z,5.57
2023-04-21T15:20:47.575Z,5.30
2023-04-21T15:23:14.635Z,5.30
2023-04-21T15:25:41.700Z,4.60
2023-04-21T15:28:08.652Z,4.77
2023-04-21T15:30:35.382Z,5.17
2023-04-21T15:33:02.620Z,4.73
2023-04-21T15:35:29.442Z,4.57
2023-04-21T15:37:55.973Z,4.40
2023-04-21T15:40:23.256Z,5.07
2023-04-21T15:42:50.004Z,4.47
2023-04-21T15:45:18.014Z,5.20
2023-04-21T15:47:45.086Z,4.47
2023-04-21T15:50:11.646Z,4.73
2023-04-21T15:52:42.688Z,4.90
2023-04-21T15:55:12.299Z,4.80
2023-04-21T15:57:39.144Z,4.97
2023-04-21T16:00:06.138Z,4.27
2023-04-21T16:02:33.130Z,4.43
2023-04-21T16:05:00.186Z,4.70
2023-04-21T16:07:26.898Z,4.50
2023-04-21T16:09:53.350Z,4.70
2023-04-21T16:12:20.444Z,5.33
2023-04-21T16:14:55.796Z,4.33
2023-04-21T16:17:29.204Z,4.80
2023-04-21T16:19:55.688Z,4.57
2023-04-21T16:22:22.238Z,4.70
2023-04-21T16:24:49.817Z,4.60
2023-04-21T16:27:16.401Z,4.90
2023-04-21T16:29:43.224Z,4.87
2023-04-21T16:32:09.770Z,4.90
2023-04-21T16:34:37.107Z,4.40
2023-04-21T16:37:03.808Z,4.20
2023-04-21T16:39:30.801Z,5.63
2023-04-21T16:41:57.381Z,5.13
2023-04-21T16:44:24.026Z,4.30
2023-04-21T16:46:50.738Z,5.27
2023-04-21T16:49:17.410Z,4.80
2023-04-21T16:51:45.052Z,4.70
2023-04-21T16:54:12.229Z,5.00
2023-04-21T16:56:38.795Z,5.17
2023-04-21T16:59:06.660Z,4.77
2023-04-21T17:01:33.650Z,5.10
2023-04-21T17:04:00.498Z,5.20
2023-04-21T17:06:27.517Z,5.10
2023-04-21T17:08:59.532Z,5.60
2023-04-21T17:11:27.843Z,5.13
2023-04-21T17:13:54.770Z,5.27
2023-04-21T17:16:21.716Z,4.83
2023-04-21T17:18:49.812Z,4.53
2023-04-21T17:21:16.544Z,4.60
2023-04-21T17:23:43.089Z,4.80
2023-04-21T17:26:12.323Z,4.60
2023-04-21T17:28:39.580Z,4.70
2023-04-21T17:31:15.242Z,5.47
2023-04-21T17:33:43.300Z,4.87
2023-04-21T17:36:10.010Z,5.70
2023-04-21T17:38:36.714Z,8.70
2023-04-21T17:41:04.506Z,4.80
2023-04-21T17:43:31.359Z,5.10
2023-04-21T17:50:27.244Z,4.57
2023-04-21T17:52:53.932Z,4.50
2023-04-21T17:55:20.902Z,5.50
2023-04-21T17:57:48.600Z,5.07
2023-04-21T18:00:17.494Z,4.77
2023-04-21T18:02:44.120Z,6.07
2023-04-21T18:05:13.907Z,5.20
2023-04-21T18:07:41.348Z,5.60
2023-04-21T18:10:08.230Z,5.37
2023-04-21T18:12:34.749Z,5.10
2023-04-21T18:15:01.597Z,5.20
2023-04-21T18:17:31.324Z,5.40
2023-04-21T18:19:58.325Z,4.73
2023-04-21T18:22:24.799Z,5.50
2023-04-21T18:24:51.503Z,5.53
2023-04-21T18:27:18.000Z,5.50
2023-04-21T18:29:44.494Z,5.13
2023-04-21T18:32:11.028Z,5.07
2023-04-21T18:34:37.813Z,4.60
2023-04-21T18:37:04.533Z,4.73
2023-04-21T18:39:31.131Z,4.80
2023-04-21T18:41:57.902Z,5.53
2023-04-21T18:44:24.454Z,5.43
2023-04-21T18:46:54.378Z,5.77
2023-04-21T18:49:20.940Z,4.53
2023-04-21T18:51:49.685Z,4.90
2023-04-21T18:54:16.254Z,5.70
2023-04-21T18:56:44.636Z,5.40
2023-04-21T18:59:11.311Z,5.80
2023-04-21T19:01:39.616Z,5.30
2023-04-21T19:04:08.153Z,5.20
2023-04-21T19:06:35.558Z,5.20
2023-04-21T19:09:02.162Z,5.30
2023-04-21T19:11:29.632Z,4.70
2023-04-21T19:13:56.238Z,5.13
2023-04-21T19:16:22.831Z,5.73
2023-04-21T19:18:49.925Z,5.80
2023-04-21T19:21:16.622Z,4.40
2023-04-21T19:23:43.311Z,5.87
2023-04-21T19:26:11.949Z,5.30
2023-04-21T19:28:41.811Z,5.30
2023-04-21T19:31:09.057Z,6.27
2023-04-21T19:33:35.627Z,5.30
2023-04-21T19:36:02.899Z,5.50
2023-04-21T19:38:29.890Z,6.10
2023-04-21T19:40:59.216Z,7.23
2023-04-21T19:43:26.131Z,5.97
2023-04-21T19:45:53.084Z,6.30
2023-04-21T19:48:19.783Z,5.87
2023-04-21T19:50:47.201Z,5.77
2023-04-21T19:53:17.241Z,5.83
2023-04-21T19:55:43.802Z,5.73
2023-04-21T19:58:10.515Z,6.20
2023-04-21T20:00:37.049Z,6.80
2023-04-21T20:03:06.374Z,5.00
2023-04-21T20:05:33.651Z,6.50
2023-04-21T20:08:00.163Z,5.30
2023-04-21T20:10:27.098Z,5.70
2023-04-21T20:12:54.122Z,5.47
2023-04-21T20:15:21.696Z,5.50
2023-04-21T20:17:49.053Z,5.40
2023-04-21T20:20:16.334Z,6.60
2023-04-21T20:22:43.191Z,5.83
2023-04-21T20:25:10.642Z,5.73
2023-04-21T20:27:37.748Z,5.37
2023-04-21T20:30:04.460Z,5.43
2023-04-21T20:32:31.129Z,6.07
2023-04-21T20:34:59.628Z,5.90
2023-04-21T20:37:26.383Z,5.17
2023-04-21T20:39:52.832Z,6.17
2023-04-21T20:42:22.112Z,6.80
2023-04-21T20:44:48.593Z,5.50
2023-04-21T20:47:16.066Z,6.33
2023-04-21T20:49:43.485Z,5.30
2023-04-21T20:52:10.424Z,5.83
2023-04-21T20:54:37.536Z,5.83
2023-04-21T20:57:04.214Z,5.60
2023-04-21T20:59:30.799Z,5.30
2023-04-21T21:01:57.927Z,5.17
2023-04-21T21:04:24.578Z,5.60
2023-04-21T21:06:51.188Z,5.20
2023-04-21T21:09:18.863Z,5.80
2023-04-21T21:11:45.905Z,4.80
2023-04-21T21:14:12.848Z,5.80
2023-04-21T21:16:39.797Z,5.33
2023-04-21T21:19:06.400Z,5.50
2023-04-21T21:21:32.939Z,5.20
2023-04-21T21:24:00.150Z,5.37
2023-04-21T21:26:27.088Z,5.47
2023-04-21T21:28:53.548Z,5.53
2023-04-21T21:31:20.085Z,4.30
2023-04-21T21:33:49.715Z,5.47
2023-04-21T21:36:16.217Z,5.77
2023-04-21T21:38:42.893Z,5.07
2023-04-21T21:41:12.435Z,5.20
2023-04-21T21:43:38.990Z,4.90
2023-04-21T21:46:06.048Z,4.77
2023-04-21T21:48:33.319Z,5.43
2023-04-21T21:51:00.445Z,5.67
2023-04-21T21:53:27.163Z,5.20
2023-04-21T21:55:53.680Z,5.60
2023-04-21T21:58:20.565Z,5.13
2023-04-21T22:00:51.696Z,4.50
2023-04-21T22:03:19.012Z,4.80
2023-04-21T22:05:45.743Z,5.03
2023-04-21T22:08:15.801Z,4.40
2023-04-21T22:10:43.348Z,4.30
2023-04-21T22:13:09.859Z,4.70
2023-04-21T22:15:37.283Z,6.00
2023-04-21T22:18:04.809Z,5.00
2023-04-21T22:20:31.280Z,4.90
2023-04-21T22:22:58.033Z,4.73
2023-04-21T22:25:27.359Z,5.20
2023-04-21T22:27:54.525Z,5.20
2023-04-21T22:30:21.404Z,5.20
2023-04-21T22:32:48.005Z,5.00
2023-04-21T22:35:14.682Z,5.50
2023-04-21T22:37:43.760Z,4.30
2023-04-21T22:40:10.416Z,4.90
2023-04-21T22:42:37.019Z,5.20
2023-04-21T22:45:06.812Z,5.00
2023-04-21T22:47:33.438Z,5.20
2023-04-21T22:50:00.013Z,5.43
2023-04-21T22:52:26.880Z,5.00
2023-04-21T22:54:53.658Z,4.90
2023-04-21T22:57:20.989Z,5.00
2023-04-21T22:59:47.636Z,4.70
2023-04-21T23:02:14.792Z,5.50
2023-04-21T23:04:41.319Z,5.23
2023-04-21T23:07:08.255Z,5.67
2023-04-21T23:09:34.728Z,4.90
2023-04-21T23:12:01.611Z,5.10
2023-04-21T23:14:28.112Z,4.77
2023-04-21T23:16:54.666Z,4.60
2023-04-21T23:19:21.256Z,5.07
2023-04-21T23:21:47.705Z,5.00
2023-04-21T23:24:14.549Z,4.90
2023-04-21T23:26:41.148Z,5.07
2023-04-21T23:29:07.663Z,6.17
2023-04-21T23:31:34.363Z,5.17
2023-04-21T23:34:00.840Z,4.67
2023-04-21T23:36:27.735Z,4.80
2023-04-21T23:38:54.329Z,4.80
2023-04-21T23:41:21.311Z,4.57
2023-04-21T23:43:48.158Z,4.67
2023-04-21T23:46:15.097Z,4.67
2023-04-21T23:48:41.803Z,5.27
2023-04-21T23:51:08.579Z,5.73
2023-04-21T23:53:35.126Z,5.17
2023-04-21T23:56:01.697Z,5.13
2023-04-21T23:58:28.220Z,5.00
